Aérodrome :
LOGIN :

S'inscrire | Disclaimer

   EN    FR    IT 

 










Légende :    VFR   VFR Marginal   IFR   IFR Intensif   IFR Très Intensif
Visi : 
Plafond : 
>= 8 km
>= 3000ft
5 à 8 km
1000 à 3000 ft
1500m à 5 km
500 à 1000 ft
800 à 1500m
200 à 500 ft
< 800m
< 200 ft
Symboles :   Orages  Brouillard  Fortes neiges  Fortes précipitations  Vent > 20 kt
SIGMETs :   Divers  Orages  Givrage  Turbulence  Onde Orograph.  Cendres Volcan.







- Altitude de l'aérodrome : 1470 ft
- Code IATA : KLU


LOWK - Klagenfurt

DERNIER METAR :
  • 190250Z AUTO VRB01KT 5000 -SHRASN FEW001 BKN014 00/M01 Q1013

METARs EXPIRÉS :
  • 190220Z AUTO VRB01KT 7000 -SHRASN FEW001 SCT013 BKN060 01/M01 Q1013
  • 190150Z AUTO VRB01KT 9999 FEW002 SCT010 BKN028 00/M01 Q1013
  • 190120Z AUTO 32003KT 7000 FEW008 BKN010 00/M01 Q1014
  • 190050Z AUTO VRB01KT 6000 -RASN FEW002 SCT009 BKN080 00/M01 Q1014
  • 190020Z AUTO VRB01KT 6000 -RASN FEW010 BKN080 00/M01 Q1014

TAF AMD TAF LOWK
Valide du 19 à 02h jusqu'au 20 à 00h UTC


190242Z 1902/1924 VRB02KT 8000 FEW030 BKN040 TX01/1913Z TNM00/1906Z
TEMPO 1902/1914 6000 -SN FEW009 BKN025
PROB30
TEMPO 1902/1908 2500 BR BKN009
TEMPO 1920/1924 4000 -SN BR FEW008 BKN020
Pas de NOTAMs connus pour ce terrain.
1 SIGMET publié pour la FIR Wien (LOVV) :
 
Givrage fort
LOVV SIGMET 1 VALID 190245/190630 LOWW
LOVV WIEN FIR SEV ICE FCST SE OF LINE N4630 E01340 - N4800 E01710 3000/9000FT STNR NC=



MET'MAP, la Météo Aéronautique d'un coup d'oeil ! - Copyright ORBIFLY Décembre 2007 - Disclaimer

ORBIFLY MET'MAP TEAM :

Programmation & Développement : Alexandra Zaïnal
Conception & Développement : Baudouin d'Aumeries
Co-Programmation & Développement : Marc-Olivier Méhu
Soutien technique & logistique : Manuel Goepfert

Contact : metmap@orbifly.com




SOURCES & CREDITS :

   NOAA